Terminal Aerodrome Forecast
Issued by NWS

Home | Current Version | Previous Version | Text Only | Print | Product List | Glossary On
Versions: 1 2 3 4 5 6 7 8 9 10 11 12 13 14 15 16 17 18 19 20 21
000
FTUS42 KJAX 301357 AAC
TAFCRG
TAF AMD
KCRG 301357Z 3014/3112 VRB03KT P6SM SCT012 BKN250
      TEMPO 3014/3015 BKN012
     FM301600 12008KT P6SM VCSH SCT040
     FM302000 15010KT P6SM VCTS SCT050CB
      TEMPO 3020/3024 VRB15G25KT 3SM TSRA BKN050CB OVC080
     FM310200 VRB03KT P6SM SKC=

USA.gov is the U.S. government's official web portal to all federal, state and local government web resources and services.